• Join FlightAware (Why Join?)
  • Login
  • US Flag 
Rudolph Flight #1: Arrived! 
12:12PM EST


 

Airport Tracker/Info


-or-


 

Live Flight TrackerFlight Track Log ✈ COM3163 ✈ 01-Mar-2012 ✈ KPHL - KMEM

Flight Track Log - Related Links

Times and Time Zones

All times are in EST time to prevent confusion due to time zone crossing. See the COM3163 flight status page for this flight to view local times or setup timezone preferences in your user account.

Time Position Orientation Groundspeed Altitude Reporting Facility
EST Latitude Longitude Course Direction KTS MPH feet Rate Location/Type
05:35PM 39.8606 -75.2739 250° West 148 170 700  Level FAA TRACON SMA TRACON (SMA)
05:35PM 39.8514 -75.3061 250° West 180 207 1,600 1,860 Climbing FAA TRACON SMA TRACON (SMA)
05:36PM 39.8356 -75.3631 275° West 212 244 3,200 2,400 Climbing FAA TRACON SMA TRACON (SMA)
05:37PM 39.8389 -75.4108 294° West 220 253 4,800 2,580 Climbing FAA TRACON SMA TRACON (SMA)
05:37PM 39.8564 -75.4614 291° West 221 254 6,700 2,760 Climbing FAA TRACON SMA TRACON (SMA)
05:38PM 39.8725 -75.5153 290° West 232 267 8,500 2,460 Climbing FAA TRACON SMA TRACON (SMA)
05:39PM 39.8864 -75.5642 291° West 231 266 10,000 1,260 Climbing FAA TRACON SMA TRACON (SMA)
05:39PM 39.9047 -75.6281 283° West 286 329 10,200 1,020 Climbing FAA TRACON SMA TRACON (SMA)
05:40PM 39.9161 -75.6936 269° West 305 351 11,400 1,920 Climbing FAA TRACON SMA TRACON (SMA)
05:41PM 39.9156 -75.7706 269° West 307 353 12,800 2,100 Climbing FAA TRACON SMA TRACON (SMA)
05:41PM 39.9142 -75.8483 269° West 310 357 14,200 1,920 Climbing FAA TRACON SMA TRACON (SMA)
05:42PM 39.9119 -75.9617 269° West 312 359 16,000 1,500 Climbing FAA TRACON SMA TRACON (SMA)
05:43PM 39.9108 -76.0317 268° West 317 365 16,700 1,380 Climbing FAA TRACON SMA TRACON (SMA)
05:44PM 39.9083 -76.1136 268° West 325 374 17,900 1,080 Climbing FAA TRACON SMA TRACON (SMA)
05:44PM 39.9078 -76.1322 270° West 326 375 18,200 1,080 Climbing FAA TRACON SMA TRACON (SMA)
05:47PM 39.9061 -76.4892 268° West 347 399 21,400 1,260 Climbing New York Center
05:48PM 39.9014 -76.6294 266° West 359 413 22,700 1,080 Climbing New York Center
05:49PM 39.8947 -76.7617 268° West 364 419 23,600 960 Climbing New York Center
05:50PM 39.8919 -76.8939 263° West 364 419 24,700 960 Climbing New York Center
05:52PM 39.8661 -77.1539 250° West 366 421 26,700 960 Climbing Washington Center
05:53PM 39.8311 -77.2803 248° West 371 427 27,700 960 Climbing Washington Center
05:54PM 39.7939 -77.4008 247° West 377 434 28,700 960 Climbing Washington Center
05:55PM 39.7544 -77.5239 249° West 377 434 29,700 960 Climbing Washington Center
05:56PM 39.7192 -77.6417 248° West 365 420 30,700 960 Climbing Washington Center
05:57PM 39.6817 -77.7619 248° West 365 420 31,700 960 Climbing Washington Center
05:58PM 39.6461 -77.8769 248° West 360 414 32,700 840 Climbing Washington Center
05:59PM 39.6083 -77.9969 249° West 355 409 33,400 660 Climbing Washington Center
06:00PM 39.5728 -78.1142 248° West 355 409 34,100 780 Climbing Washington Center
06:01PM 39.5325 -78.2444 247° West 350 403 35,000 780 Climbing Washington Center
06:02PM 39.4944 -78.3614 248° West 350 403 35,700 480 Climbing Washington Center
06:03PM 39.4561 -78.4811 247° West 350 403 36,000 120 Climbing Washington Center
06:04PM 39.4178 -78.6003 246° West 355 409 36,000  Level Washington Center
06:05PM 39.3750 -78.7247 248° West 369 425 36,000  Level Washington Center
06:06PM 39.3361 -78.8519 247° West 375 432 36,000  Level Washington Center
06:07PM 39.2931 -78.9842 247° West 388 447 36,000  Level Washington Center
06:08PM 39.2519 -79.1081 249° West 388 447 36,000  Level Washington Center
06:09PM 39.2125 -79.2375 250° West 388 447 36,000  Level Washington Center
06:10PM 39.1797 -79.3536 247° West 388 447 36,000  Level Washington Center
06:11PM 39.1361 -79.4828 248° West 388 447 36,000  Level Washington Center
06:12PM 39.0967 -79.6061 246° West 388 447 36,000  Level Washington Center
06:13PM 39.0525 -79.7347 247° West 388 447 36,000  Level Washington Center
06:14PM 39.0058 -79.8792 247° West 388 447 36,000  Level Washington Center
06:16PM 38.9403 -80.0728 245° Southwest 391 450 36,000  Level Indianapolis Center
06:17PM 38.8942 -80.2003 246° West 384 442 36,000  Level Indianapolis Center
06:18PM 38.8517 -80.3250 246° West 378 435 36,000  Level Indianapolis Center
06:19PM 38.8092 -80.4494 246° West 383 441 36,000  Level Indianapolis Center
06:20PM 38.7664 -80.5739 246° West 383 441 36,000  Level Indianapolis Center
06:21PM 38.7236 -80.6956 247° West 383 441 36,000  Level Indianapolis Center
06:22PM 38.6806 -80.8222 246° West 383 441 36,000  Level Indianapolis Center
06:23PM 38.6375 -80.9461 246° West 383 441 36,000  Level Indianapolis Center
06:24PM 38.5906 -81.0806 246° West 378 435 36,000  Level Indianapolis Center
06:25PM 38.5472 -81.2044 246° West 383 441 36,000  Level Indianapolis Center
06:26PM 38.5036 -81.3278 246° West 383 441 36,000  Level Indianapolis Center
06:27PM 38.4600 -81.4511 247° West 383 441 36,000  Level Indianapolis Center
06:28PM 38.4183 -81.5744 246° West 383 441 36,000  Level Indianapolis Center
06:29PM 38.3744 -81.6975 249° West 378 435 36,000  Level Indianapolis Center
06:30PM 38.3367 -81.8200 249° West 378 435 36,000  Level Indianapolis Center
06:31PM 38.2989 -81.9453 251° West 378 435 36,000  Level Indianapolis Center
06:32PM 38.2650 -82.0731 250° West 378 435 36,000  Level Indianapolis Center
06:33PM 38.2331 -82.1847 251° West 378 435 36,000  Level Indianapolis Center
06:34PM 38.1989 -82.3097 251° West 378 435 36,000  Level Indianapolis Center
06:35PM 38.1647 -82.4344 249° West 378 435 36,000  Level Indianapolis Center
06:36PM 38.1242 -82.5697 251° West 378 435 36,000  Level Indianapolis Center
06:37PM 38.0897 -82.6942 250° West 373 429 36,000  Level Indianapolis Center
06:38PM 38.0531 -82.8186 249° West 373 429 36,000  Level Indianapolis Center
06:39PM 38.0164 -82.9428 251° West 373 429 36,000  Level Indianapolis Center
06:40PM 37.9814 -83.0694 249° West 373 429 36,000  Level Indianapolis Center
06:41PM 37.9444 -83.1936 249° West 373 429 36,000  Level Indianapolis Center
06:42PM 37.9069 -83.3175 250° West 379 436 36,000  Level Indianapolis Center
06:43PM 37.8697 -83.4464 249° West 384 442 36,000  Level Indianapolis Center
06:44PM 37.8322 -83.5703 249° West 389 448 36,000  Level Indianapolis Center
06:45PM 37.7947 -83.6964 250° West 389 448 36,000  Level Indianapolis Center
06:46PM 37.7569 -83.8250 249° West 389 448 36,000  Level Indianapolis Center
06:47PM 37.7189 -83.9483 249° West 389 448 36,000  Level Indianapolis Center
06:48PM 37.6808 -84.0739 248° West 389 448 36,000  Level Indianapolis Center
06:49PM 37.6469 -84.1814 248° West 389 448 36,000  Level Indianapolis Center
06:50PM 37.6089 -84.2989 249° West 380 437 36,000  Level Indianapolis Center
06:51PM 37.5725 -84.4192 249° West 374 430 36,000  Level Indianapolis Center
06:52PM 37.5361 -84.5417 248° West 374 430 36,000  Level Indianapolis Center
06:53PM 37.4975 -84.6617 249° West 368 423 36,000  Level Indianapolis Center
06:54PM 37.4608 -84.7789 250° West 368 423 36,000  Level Indianapolis Center
06:55PM 37.4261 -84.8961 247° West 373 429 36,000  Level Indianapolis Center
06:56PM 37.3872 -85.0131 248° West 367 422 36,000  Level Indianapolis Center
06:57PM 37.3503 -85.1297 249° West 367 422 36,000  Level Indianapolis Center
06:58PM 37.3153 -85.2414 248° West 367 422 36,000  Level Indianapolis Center
06:59PM 37.2781 -85.3581 250° West 367 422 36,000  Level Indianapolis Center
07:00PM 37.2294 -85.5272 248° West 356 410 36,000  Level Memphis Center
07:01PM 37.1922 -85.6414 248° West 356 410 36,000  Level Memphis Center
07:02PM 37.1550 -85.7556 249° West 356 410 36,000  Level Memphis Center
07:03PM 37.1214 -85.8642 247° West 356 410 36,000  Level Memphis Center
07:04PM 37.0836 -85.9756 248° West 350 403 36,000  Level Memphis Center
07:05PM 37.0481 -86.0867 247° West 350 403 36,000  Level Memphis Center
07:06PM 37.0100 -86.2003 248° West 350 403 36,000  Level Memphis Center
07:07PM 36.9725 -86.3192 247° West 350 403 36,000  Level Memphis Center
07:08PM 36.9342 -86.4300 242° Southwest 350 403 36,000  Level Memphis Center
07:09PM 36.8897 -86.5361 242° Southwest 345 397 36,000  Level Memphis Center
07:10PM 36.8431 -86.6444 241° Southwest 357 411 36,000  Level Memphis Center
07:11PM 36.7981 -86.7478 241° Southwest 357 411 36,000  Level Memphis Center
07:12PM 36.7492 -86.8561 242° Southwest 357 411 36,000  Level Memphis Center
07:13PM 36.7042 -86.9614 239° Southwest 357 411 36,000  Level Memphis Center
07:14PM 36.6528 -87.0697 241° Southwest 357 411 36,000  Level Memphis Center
07:15PM 36.6056 -87.1775 240° Southwest 357 411 36,000  Level Memphis Center
07:16PM 36.5561 -87.2856 240° Southwest 357 411 36,000  Level Memphis Center
07:17PM 36.5086 -87.3881 240° Southwest 357 411 36,000 -540 Level Memphis Center
07:18PM 36.4572 -87.5008 241° Southwest 363 418 35,000 -540 Descending Memphis Center
07:19PM 36.4075 -87.6108 240° Southwest 368 423 35,000  Level Memphis Center
07:20PM 36.3578 -87.7181 241° Southwest 368 423 35,000  Level Memphis Center
07:21PM 36.3139 -87.8150 240° Southwest 368 423 35,000  Level Memphis Center
07:22PM 36.2639 -87.9219 241° Southwest 363 418 35,000 -900 Level Memphis Center
07:23PM 36.2139 -88.0314 241° Southwest 368 423 33,200 -2,040 Descending Memphis Center
07:24PM 36.1597 -88.1539 241° Southwest 368 423 31,000 -2,160 Descending Memphis Center
07:25PM 36.1075 -88.2683 240° Southwest 373 429 28,900 -2,100 Descending Memphis Center
07:26PM 36.0531 -88.3828 240° Southwest 381 438 26,900 -2,040 Descending Memphis Center
07:27PM 35.9967 -88.5019 240° Southwest 392 451 24,900 -2,280 Descending Memphis Center
07:28PM 35.9400 -88.6214 241° Southwest 405 466 22,400 -2,520 Descending Memphis Center
07:29PM 35.8872 -88.7378 239° Southwest 405 466 19,900 -2,400 Descending Memphis Center
07:30PM 35.8325 -88.8514 239° Southwest 405 466 17,700 -2,100 Descending Memphis Center
07:31PM 35.7794 -88.9600 239° Southwest 395 455 15,700 -2,040 Descending Memphis Center
07:32PM 35.7244 -89.0708 230° Southwest 390 449 13,700 -1,980 Descending Memphis Center
07:33PM 35.6608 -89.1639 224° Southwest 384 442 11,800 -1,860 Descending Memphis Center
07:34PM 35.6075 -89.2281 227° Southwest 364 419 10,300 -1,140 Descending FAA TRACON SMA TRACON (SMA)
07:35PM 35.5606 -89.2894 226° Southwest 353 406 10,100 -120 Descending FAA TRACON SMA TRACON (SMA)
07:36PM 35.4944 -89.3736 230° Southwest 340 391 10,100  Level FAA TRACON SMA TRACON (SMA)
07:36PM 35.4536 -89.4339 242° Southwest 330 380 10,100 -180 Level FAA TRACON SMA TRACON (SMA)
07:37PM 35.4319 -89.4833 241° Southwest 272 313 9,900 -1,200 Descending FAA TRACON SMA TRACON (SMA)
07:38PM 35.4081 -89.5356 242° Southwest 254 292 8,500 -1,980 Descending FAA TRACON SMA TRACON (SMA)
07:38PM 35.3853 -89.5878 244° Southwest 251 289 7,300 -1,800 Descending FAA TRACON SMA TRACON (SMA)
07:39PM 35.3667 -89.6336 243° Southwest 246 283 6,100 -1,980 Descending FAA TRACON SMA TRACON (SMA)
07:40PM 35.3453 -89.6858 246° West 246 283 4,700 -1,500 Descending FAA TRACON SMA TRACON (SMA)
07:40PM 35.3261 -89.7392 247° West 247 284 4,100 -480 Descending FAA TRACON SMA TRACON (SMA)
07:41PM 35.3094 -89.7864 234° Southwest 245 282 4,100 -540 Level FAA TRACON SMA TRACON (SMA)
07:42PM 35.2819 -89.8331 231° Southwest 239 275 3,400 -780 Descending FAA TRACON SMA TRACON (SMA)
07:42PM 35.2539 -89.8758 232° Southwest 234 269 3,100 -240 Descending FAA TRACON SMA TRACON (SMA)
07:43PM 35.2256 -89.9197 219° Southwest 235 270 3,100 -180 Level FAA TRACON SMA TRACON (SMA)
07:44PM 35.1953 -89.9500 210° Southwest 223 257 2,900 -540 Descending FAA TRACON SMA TRACON (SMA)
07:44PM 35.1608 -89.9739 182° South 202 232 2,400 -720 Descending FAA TRACON SMA TRACON (SMA)
07:45PM 35.1314 -89.9753 179° South 166 191 2,000 -720 Descending FAA TRACON SMA TRACON (SMA)
07:46PM 35.1031 -89.9744 179° South 155 178 1,500 -780 Descending FAA TRACON SMA TRACON (SMA)
07:46PM 35.0789 -89.9739 178° South 126 145 1,000 -720 Descending FAA TRACON SMA TRACON (SMA)
07:47PM 35.0586 -89.9731 178° South 118 136 600 -600 Descending FAA TRACON SMA TRACON (SMA)